createdAt,value
2022-08-30T00:02:48.186Z,20.89
2022-08-30T00:07:50.418Z,20.89
2022-08-30T00:12:51.870Z,20.93
2022-08-30T00:17:54.391Z,21.02
2022-08-30T00:22:56.146Z,21.07
2022-08-30T00:27:57.710Z,21.07
2022-08-30T00:32:59.290Z,21.13
2022-08-30T00:38:00.888Z,21.33
2022-08-30T00:43:07.167Z,21.42
2022-08-30T00:48:09.119Z,21.35
2022-08-30T00:53:20.382Z,21.17
2022-08-30T00:58:27.539Z,21.05
2022-08-30T01:03:30.773Z,20.91
2022-08-30T01:08:32.223Z,20.84
2022-08-30T01:13:35.732Z,20.66
2022-08-30T01:18:39.688Z,20.50
2022-08-30T01:23:44.183Z,20.40
2022-08-30T01:28:49.958Z,20.32
2022-08-30T01:33:51.448Z,20.26
2022-08-30T01:38:55.650Z,20.32
2022-08-30T01:44:01.739Z,20.46
2022-08-30T01:49:07.024Z,20.42
2022-08-30T01:54:09.280Z,20.37
2022-08-30T01:59:11.179Z,20.40
2022-08-30T02:04:14.502Z,20.34
2022-08-30T02:09:16.551Z,20.27
2022-08-30T02:14:18.000Z,20.19
2022-08-30T02:19:22.694Z,20.22
2022-08-30T02:24:24.204Z,20.16
2022-08-30T02:29:26.266Z,20.16
2022-08-30T02:34:27.750Z,20.16
2022-08-30T02:39:29.295Z,20.05
2022-08-30T02:44:30.734Z,19.85
2022-08-30T02:49:33.877Z,19.68
2022-08-30T02:54:36.006Z,19.67
2022-08-30T02:59:41.740Z,19.68
2022-08-30T03:04:46.363Z,19.67
2022-08-30T03:09:47.828Z,19.61
2022-08-30T03:14:49.313Z,19.54
2022-08-30T03:19:51.538Z,19.40
2022-08-30T03:24:53.035Z,19.29
2022-08-30T03:29:55.159Z,19.19
2022-08-30T03:34:56.648Z,19.09
2022-08-30T03:39:58.154Z,18.96
2022-08-30T03:45:01.319Z,18.83
2022-08-30T03:50:05.044Z,18.79
2022-08-30T03:55:07.014Z,18.78
2022-08-30T04:00:09.522Z,18.73
2022-08-30T04:05:12.372Z,18.63
2022-08-30T04:10:16.559Z,18.49
2022-08-30T04:15:19.641Z,18.37
2022-08-30T04:20:21.819Z,18.26
2022-08-30T04:25:23.379Z,18.18
2022-08-30T04:30:24.920Z,18.08
2022-08-30T04:35:26.978Z,18.01
2022-08-30T04:40:28.585Z,17.91
2022-08-30T04:45:30.157Z,17.91
2022-08-30T04:50:32.479Z,17.99
2022-08-30T04:55:33.947Z,18.03
2022-08-30T05:00:37.354Z,18.10
2022-08-30T05:05:39.849Z,18.54
2022-08-30T05:10:44.031Z,19.14
2022-08-30T05:15:46.061Z,19.88
2022-08-30T05:20:47.608Z,20.50
2022-08-30T05:25:49.086Z,21.30
2022-08-30T05:30:50.613Z,21.77
2022-08-30T05:35:52.341Z,21.95
2022-08-30T05:40:54.030Z,21.96
2022-08-30T05:46:13.028Z,23.40
2022-08-30T05:51:18.809Z,23.93
2022-08-30T05:56:25.220Z,24.75
2022-08-30T06:01:37.793Z,25.62
2022-08-30T06:06:41.650Z,26.35
2022-08-30T06:11:44.172Z,27.18
2022-08-30T06:16:48.670Z,27.70
2022-08-30T06:21:51.260Z,29.06
2022-08-30T06:26:52.747Z,30.37
2022-08-30T06:31:54.355Z,32.14
2022-08-30T06:36:55.838Z,33.31
2022-08-30T06:41:57.328Z,34.36
2022-08-30T06:46:58.998Z,34.20
2022-08-30T06:52:00.525Z,34.55
2022-08-30T06:57:02.012Z,34.53
2022-08-30T07:02:03.654Z,34.54
2022-08-30T07:07:05.279Z,34.67
2022-08-30T07:12:06.827Z,36.34
2022-08-30T07:17:32.591Z,36.77
2022-08-30T07:22:35.913Z,38.22
2022-08-30T07:27:37.488Z,38.90
2022-08-30T07:32:39.081Z,39.94
2022-08-30T07:37:40.604Z,40.40
2022-08-30T07:42:42.268Z,39.49
2022-08-30T07:47:45.280Z,39.24
2022-08-30T07:52:46.796Z,38.21
2022-08-30T07:57:48.366Z,37.86
2022-08-30T08:02:50.174Z,37.28
2022-08-30T08:07:51.658Z,37.81
2022-08-30T08:12:53.082Z,36.91
2022-08-30T08:17:56.945Z,37.24
2022-08-30T08:22:58.422Z,37.09
2022-08-30T08:27:59.957Z,35.66
2022-08-30T08:33:01.970Z,32.87
2022-08-30T08:38:04.896Z,32.56
2022-08-30T08:43:12.597Z,32.51
2022-08-30T08:48:32.096Z,32.61
2022-08-30T08:53:58.133Z,32.57
2022-08-30T08:58:59.814Z,32.50
2022-08-30T09:04:14.531Z,31.06
2022-08-30T09:09:20.212Z,32.04
2022-08-30T09:14:34.778Z,34.11
2022-08-30T09:19:41.311Z,33.40
2022-08-30T09:24:49.245Z,34.72
2022-08-30T09:30:14.261Z,35.56
2022-08-30T09:35:34.570Z,36.14
2022-08-30T09:40:40.353Z,36.42
2022-08-30T09:46:03.346Z,35.55
2022-08-30T09:51:11.478Z,34.44
2022-08-30T09:56:38.016Z,33.85
2022-08-30T10:01:48.780Z,34.00
2022-08-30T10:06:55.365Z,33.71
2022-08-30T10:12:01.338Z,33.78
2022-08-30T10:17:11.167Z,33.64
2022-08-30T10:22:46.658Z,32.51
2022-08-30T10:28:08.427Z,32.62
2022-08-30T10:33:15.294Z,32.37
2022-08-30T10:38:24.442Z,31.72
2022-08-30T10:43:39.096Z,31.47
2022-08-30T10:48:44.485Z,31.81
2022-08-30T10:54:04.062Z,31.63
2022-08-30T10:59:05.906Z,31.84
2022-08-30T11:04:23.138Z,31.93
2022-08-30T11:09:49.775Z,31.58
2022-08-30T11:14:52.563Z,31.72
2022-08-30T11:19:57.003Z,31.61
2022-08-30T11:25:10.111Z,31.70
2022-08-30T11:30:24.322Z,31.55
2022-08-30T11:35:48.499Z,31.89
2022-08-30T11:41:06.968Z,32.05
2022-08-30T11:46:28.478Z,31.48
2022-08-30T11:52:26.658Z,31.09
2022-08-30T11:58:01.138Z,30.92
2022-08-30T12:03:15.065Z,31.29
2022-08-30T12:08:28.616Z,31.63
2022-08-30T12:13:39.948Z,31.79
2022-08-30T12:18:50.546Z,31.35
2022-08-30T12:24:18.709Z,31.23
2022-08-30T12:29:25.903Z,31.28
2022-08-30T12:34:30.111Z,31.35
2022-08-30T12:39:34.960Z,31.51
2022-08-30T12:44:36.683Z,31.58
2022-08-30T12:49:40.313Z,31.50
2022-08-30T12:54:42.400Z,31.14
2022-08-30T13:00:01.630Z,31.25
2022-08-30T13:05:30.510Z,31.10
2022-08-30T13:10:33.090Z,31.11
2022-08-30T13:15:42.123Z,31.11
2022-08-30T13:20:43.618Z,31.19
2022-08-30T13:25:45.244Z,31.36
2022-08-30T13:30:46.786Z,31.50
2022-08-30T13:35:48.337Z,31.10
2022-08-30T13:40:49.895Z,31.09
2022-08-30T13:45:51.888Z,31.29
2022-08-30T13:50:53.754Z,31.37
2022-08-30T13:55:55.207Z,31.33
2022-08-30T14:00:57.126Z,31.04
2022-08-30T14:06:29.379Z,31.17
2022-08-30T14:11:22.471Z,31.32
2022-08-30T14:16:27.614Z,31.56
2022-08-30T14:21:29.735Z,31.42
2022-08-30T14:26:45.867Z,31.06
2022-08-30T14:31:48.784Z,30.96
2022-08-30T14:36:50.604Z,31.01
2022-08-30T14:41:55.373Z,30.99
2022-08-30T14:46:57.112Z,30.91
2022-08-30T14:51:58.865Z,30.84
2022-08-30T14:57:00.462Z,30.48
2022-08-30T15:02:02.395Z,30.54
2022-08-30T15:07:03.938Z,30.62
2022-08-30T15:12:05.591Z,30.60
2022-08-30T15:17:09.334Z,30.57
2022-08-30T15:22:10.882Z,30.44
2022-08-30T15:27:12.599Z,30.47
2022-08-30T15:32:14.094Z,30.56
2022-08-30T15:37:22.313Z,30.68
2022-08-30T15:42:23.799Z,30.81
2022-08-30T15:47:25.329Z,30.62
2022-08-30T15:52:29.057Z,30.45
2022-08-30T15:57:30.525Z,30.45
2022-08-30T16:02:33.136Z,30.45
2022-08-30T16:07:40.600Z,30.28
2022-08-30T16:12:42.553Z,30.19
2022-08-30T16:17:44.900Z,30.22
2022-08-30T16:22:47.008Z,30.26
2022-08-30T16:27:48.881Z,30.09
2022-08-30T16:32:50.482Z,29.95
2022-08-30T16:37:52.212Z,29.76
2022-08-30T16:42:53.688Z,29.58
2022-08-30T16:47:55.166Z,29.48
2022-08-30T16:52:56.684Z,29.39
2022-08-30T16:57:58.239Z,29.27
2022-08-30T17:03:00.386Z,29.14
2022-08-30T17:08:05.448Z,29.02
2022-08-30T17:13:07.980Z,28.92
2022-08-30T17:18:09.455Z,28.85
2022-08-30T17:23:11.416Z,28.76
2022-08-30T17:28:12.889Z,28.64
2022-08-30T17:33:15.153Z,28.51
2022-08-30T17:38:19.507Z,28.38
2022-08-30T17:43:21.250Z,28.23
2022-08-30T17:48:22.706Z,28.08
2022-08-30T17:53:24.598Z,27.96
2022-08-30T17:58:26.136Z,27.84
2022-08-30T18:03:28.816Z,27.74
2022-08-30T18:08:30.470Z,27.65
2022-08-30T18:13:32.576Z,27.64
2022-08-30T18:18:34.180Z,27.59
2022-08-30T18:23:35.923Z,27.51
2022-08-30T18:28:37.571Z,27.44
2022-08-30T18:33:39.391Z,27.37
2022-08-30T18:38:42.445Z,27.30
2022-08-30T18:43:44.955Z,27.18
2022-08-30T18:48:47.494Z,27.04
2022-08-30T18:53:49.516Z,26.92
2022-08-30T18:58:51.019Z,26.77
2022-08-30T19:03:52.608Z,26.57
2022-08-30T19:08:54.118Z,26.44
2022-08-30T19:13:55.624Z,26.35
2022-08-30T19:18:57.060Z,26.24
2022-08-30T19:23:59.082Z,26.15
2022-08-30T19:29:01.696Z,26.03
2022-08-30T19:34:03.911Z,25.91
2022-08-30T19:39:05.765Z,25.83
2022-08-30T19:44:07.531Z,25.77
2022-08-30T19:49:11.127Z,25.70
2022-08-30T19:54:12.608Z,25.64
2022-08-30T19:59:14.143Z,25.56
2022-08-30T20:04:16.067Z,25.42
2022-08-30T20:09:22.221Z,25.24
2022-08-30T20:14:23.924Z,25.04
2022-08-30T20:19:27.481Z,24.89
2022-08-30T20:24:30.642Z,24.79
2022-08-30T20:29:34.413Z,24.81
2022-08-30T20:34:36.349Z,25.12
2022-08-30T20:39:38.045Z,25.34
2022-08-30T20:44:39.632Z,25.33
2022-08-30T20:49:41.104Z,25.25
2022-08-30T20:54:44.117Z,25.23
2022-08-30T20:59:45.575Z,25.29
2022-08-30T21:04:47.276Z,25.25
2022-08-30T21:09:48.771Z,25.08
2022-08-30T21:14:50.199Z,24.84
2022-08-30T21:19:54.484Z,24.69
2022-08-30T21:24:56.351Z,24.56
2022-08-30T21:29:58.287Z,24.50
2022-08-30T21:35:18.638Z,24.45
2022-08-30T21:40:20.788Z,24.34
2022-08-30T21:45:22.630Z,24.28
2022-08-30T21:50:24.036Z,24.26
2022-08-30T21:55:25.590Z,24.28
2022-08-30T22:00:27.045Z,24.25
2022-08-30T22:05:28.522Z,24.23
2022-08-30T22:10:33.024Z,24.23
2022-08-30T22:15:35.874Z,24.23
2022-08-30T22:20:39.519Z,24.23
2022-08-30T22:25:41.155Z,24.20
2022-08-30T22:30:43.374Z,24.15
2022-08-30T22:35:45.569Z,24.07
2022-08-30T22:40:48.769Z,24.02
2022-08-30T22:45:50.389Z,24.06
2022-08-30T22:50:52.115Z,24.00
2022-08-30T22:55:53.534Z,23.65
2022-08-30T23:00:55.644Z,23.16
2022-08-30T23:05:57.189Z,22.60
2022-08-30T23:10:58.636Z,22.32
2022-08-30T23:16:05.036Z,22.04
2022-08-30T23:21:27.591Z,21.75
2022-08-30T23:26:48.281Z,21.53
2022-08-30T23:32:08.696Z,21.42
2022-08-30T23:37:29.063Z,21.27
2022-08-30T23:42:48.955Z,21.13
2022-08-30T23:48:09.050Z,21.07
2022-08-30T23:53:30.283Z,21.01
2022-08-30T23:58:50.166Z,20.96
